sensor_id;sensor_type;location;lat;lon;timestamp;P1;durP1;ratioP1;P2;durP2;ratioP2
42124;SDS011;27787;44.594;11.046;2023-06-26T00:01:48;4.82;;;3.60;;
42124;SDS011;27787;44.594;11.046;2023-06-26T00:04:32;5.32;;;3.60;;
42124;SDS011;27787;44.594;11.046;2023-06-26T00:07:16;6.68;;;3.67;;
42124;SDS011;27787;44.594;11.046;2023-06-26T00:10:00;6.32;;;3.75;;
42124;SDS011;27787;44.594;11.046;2023-06-26T00:12:46;5.75;;;3.63;;
42124;SDS011;27787;44.594;11.046;2023-06-26T00:15:30;6.03;;;3.92;;
42124;SDS011;27787;44.594;11.046;2023-06-26T00:18:15;6.00;;;4.25;;
42124;SDS011;27787;44.594;11.046;2023-06-26T00:20:59;7.57;;;4.47;;
42124;SDS011;27787;44.594;11.046;2023-06-26T00:23:43;5.30;;;3.30;;
42124;SDS011;27787;44.594;11.046;2023-06-26T00:26:28;6.15;;;3.92;;
42124;SDS011;27787;44.594;11.046;2023-06-26T00:29:12;5.38;;;3.83;;
42124;SDS011;27787;44.594;11.046;2023-06-26T00:31:56;6.72;;;3.63;;
42124;SDS011;27787;44.594;11.046;2023-06-26T00:34:40;6.80;;;3.72;;
42124;SDS011;27787;44.594;11.046;2023-06-26T00:37:26;5.97;;;3.58;;
42124;SDS011;27787;44.594;11.046;2023-06-26T00:40:10;7.07;;;3.70;;
42124;SDS011;27787;44.594;11.046;2023-06-26T00:42:54;6.90;;;3.95;;
42124;SDS011;27787;44.594;11.046;2023-06-26T00:45:39;5.80;;;3.23;;
42124;SDS011;27787;44.594;11.046;2023-06-26T00:48:23;8.35;;;3.88;;
42124;SDS011;27787;44.594;11.046;2023-06-26T00:51:08;5.22;;;3.40;;
42124;SDS011;27787;44.594;11.046;2023-06-26T00:53:53;6.43;;;3.70;;
42124;SDS011;27787;44.594;11.046;2023-06-26T00:56:38;10.40;;;3.70;;
42124;SDS011;27787;44.594;11.046;2023-06-26T00:59:23;4.95;;;3.38;;
42124;SDS011;27787;44.594;11.046;2023-06-26T01:02:07;7.05;;;3.92;;
42124;SDS011;27787;44.594;11.046;2023-06-26T01:04:53;6.95;;;3.72;;
42124;SDS011;27787;44.594;11.046;2023-06-26T01:07:38;5.20;;;3.42;;
42124;SDS011;27787;44.594;11.046;2023-06-26T01:10:22;8.98;;;3.63;;
42124;SDS011;27787;44.594;11.046;2023-06-26T01:13:08;12.85;;;3.65;;
42124;SDS011;27787;44.594;11.046;2023-06-26T01:15:52;6.40;;;3.17;;
42124;SDS011;27787;44.594;11.046;2023-06-26T01:18:38;5.13;;;3.50;;
42124;SDS011;27787;44.594;11.046;2023-06-26T01:21:29;6.00;;;3.70;;
42124;SDS011;27787;44.594;11.046;2023-06-26T01:24:17;6.55;;;3.78;;
42124;SDS011;27787;44.594;11.046;2023-06-26T01:27:07;4.65;;;2.95;;
42124;SDS011;27787;44.594;11.046;2023-06-26T01:29:52;7.88;;;3.42;;
42124;SDS011;27787;44.594;11.046;2023-06-26T01:32:38;6.18;;;3.65;;
42124;SDS011;27787;44.594;11.046;2023-06-26T01:35:23;5.55;;;3.83;;
42124;SDS011;27787;44.594;11.046;2023-06-26T01:38:18;5.13;;;3.45;;
42124;SDS011;27787;44.594;11.046;2023-06-26T01:41:05;6.05;;;3.38;;
42124;SDS011;27787;44.594;11.046;2023-06-26T01:46:55;4.93;;;3.13;;
42124;SDS011;27787;44.594;11.046;2023-06-26T01:52:43;7.30;;;3.33;;
42124;SDS011;27787;44.594;11.046;2023-06-26T01:58:43;8.93;;;3.40;;
42124;SDS011;27787;44.594;11.046;2023-06-26T02:01:30;5.93;;;3.17;;
42124;SDS011;27787;44.594;11.046;2023-06-26T02:04:16;5.55;;;3.60;;
42124;SDS011;27787;44.594;11.046;2023-06-26T02:07:00;4.75;;;3.20;;
42124;SDS011;27787;44.594;11.046;2023-06-26T02:09:47;5.88;;;3.80;;
42124;SDS011;27787;44.594;11.046;2023-06-26T02:12:32;8.20;;;3.35;;
42124;SDS011;27787;44.594;11.046;2023-06-26T02:15:16;8.77;;;3.17;;
42124;SDS011;27787;44.594;11.046;2023-06-26T02:18:00;6.25;;;3.58;;
42124;SDS011;27787;44.594;11.046;2023-06-26T02:20:44;5.60;;;3.37;;
42124;SDS011;27787;44.594;11.046;2023-06-26T02:23:28;7.07;;;3.60;;
42124;SDS011;27787;44.594;11.046;2023-06-26T02:26:12;5.63;;;3.57;;
42124;SDS011;27787;44.594;11.046;2023-06-26T02:29:00;5.07;;;3.38;;
42124;SDS011;27787;44.594;11.046;2023-06-26T02:31:44;6.55;;;3.50;;
42124;SDS011;27787;44.594;11.046;2023-06-26T02:34:28;5.65;;;3.60;;
42124;SDS011;27787;44.594;11.046;2023-06-26T02:37:12;8.00;;;3.87;;
42124;SDS011;27787;44.594;11.046;2023-06-26T02:39:56;8.07;;;3.53;;
42124;SDS011;27787;44.594;11.046;2023-06-26T02:42:40;5.65;;;3.15;;
42124;SDS011;27787;44.594;11.046;2023-06-26T02:45:25;6.03;;;3.38;;
42124;SDS011;27787;44.594;11.046;2023-06-26T02:48:09;6.17;;;2.87;;
42124;SDS011;27787;44.594;11.046;2023-06-26T02:50:53;7.15;;;3.50;;
42124;SDS011;27787;44.594;11.046;2023-06-26T02:53:43;6.72;;;3.40;;
42124;SDS011;27787;44.594;11.046;2023-06-26T02:56:27;4.37;;;3.37;;
42124;SDS011;27787;44.594;11.046;2023-06-26T02:59:16;4.85;;;3.47;;
42124;SDS011;27787;44.594;11.046;2023-06-26T03:02:01;7.63;;;3.40;;
42124;SDS011;27787;44.594;11.046;2023-06-26T03:04:54;5.50;;;3.33;;
42124;SDS011;27787;44.594;11.046;2023-06-26T03:07:38;4.75;;;3.33;;
42124;SDS011;27787;44.594;11.046;2023-06-26T03:10:23;5.93;;;3.10;;
42124;SDS011;27787;44.594;11.046;2023-06-26T03:13:07;5.53;;;3.40;;
42124;SDS011;27787;44.594;11.046;2023-06-26T03:15:51;5.70;;;3.63;;
42124;SDS011;27787;44.594;11.046;2023-06-26T03:18:35;7.35;;;3.20;;
42124;SDS011;27787;44.594;11.046;2023-06-26T03:21:19;5.78;;;3.38;;
42124;SDS011;27787;44.594;11.046;2023-06-26T03:24:03;5.30;;;3.30;;
42124;SDS011;27787;44.594;11.046;2023-06-26T03:26:48;7.63;;;4.38;;
42124;SDS011;27787;44.594;11.046;2023-06-26T03:29:32;6.82;;;3.35;;
42124;SDS011;27787;44.594;11.046;2023-06-26T03:32:16;9.23;;;3.30;;
42124;SDS011;27787;44.594;11.046;2023-06-26T03:35:01;7.00;;;4.07;;
42124;SDS011;27787;44.594;11.046;2023-06-26T03:37:48;7.82;;;4.38;;
42124;SDS011;27787;44.594;11.046;2023-06-26T03:40:34;7.72;;;3.97;;
42124;SDS011;27787;44.594;11.046;2023-06-26T03:43:19;6.22;;;3.60;;
42124;SDS011;27787;44.594;11.046;2023-06-26T03:46:16;6.60;;;3.90;;
42124;SDS011;27787;44.594;11.046;2023-06-26T03:49:00;6.70;;;3.60;;
42124;SDS011;27787;44.594;11.046;2023-06-26T03:51:44;7.32;;;3.38;;
42124;SDS011;27787;44.594;11.046;2023-06-26T03:54:29;5.43;;;3.27;;
42124;SDS011;27787;44.594;11.046;2023-06-26T03:57:13;5.38;;;3.40;;
42124;SDS011;27787;44.594;11.046;2023-06-26T03:59:57;12.60;;;3.53;;
42124;SDS011;27787;44.594;11.046;2023-06-26T04:02:40;6.70;;;3.60;;
42124;SDS011;27787;44.594;11.046;2023-06-26T04:05:25;7.78;;;4.00;;
42124;SDS011;27787;44.594;11.046;2023-06-26T04:08:09;6.70;;;3.97;;
42124;SDS011;27787;44.594;11.046;2023-06-26T04:10:54;8.57;;;4.28;;
42124;SDS011;27787;44.594;11.046;2023-06-26T04:13:41;10.52;;;3.92;;
42124;SDS011;27787;44.594;11.046;2023-06-26T04:16:25;6.65;;;3.60;;
42124;SDS011;27787;44.594;11.046;2023-06-26T04:19:09;7.65;;;4.25;;
42124;SDS011;27787;44.594;11.046;2023-06-26T04:21:54;5.03;;;3.57;;
42124;SDS011;27787;44.594;11.046;2023-06-26T04:24:38;6.50;;;3.83;;
42124;SDS011;27787;44.594;11.046;2023-06-26T04:27:23;5.97;;;3.50;;
42124;SDS011;27787;44.594;11.046;2023-06-26T04:30:06;10.48;;;3.60;;
42124;SDS011;27787;44.594;11.046;2023-06-26T04:32:51;5.45;;;3.55;;
42124;SDS011;27787;44.594;11.046;2023-06-26T04:35:35;5.15;;;3.75;;
42124;SDS011;27787;44.594;11.046;2023-06-26T04:38:20;5.22;;;3.55;;
42124;SDS011;27787;44.594;11.046;2023-06-26T04:41:05;5.07;;;3.42;;
42124;SDS011;27787;44.594;11.046;2023-06-26T04:43:49;8.13;;;4.10;;
42124;SDS011;27787;44.594;11.046;2023-06-26T04:46:33;5.80;;;3.95;;
42124;SDS011;27787;44.594;11.046;2023-06-26T04:49:17;5.65;;;3.50;;
42124;SDS011;27787;44.594;11.046;2023-06-26T04:52:02;8.90;;;4.07;;
42124;SDS011;27787;44.594;11.046;2023-06-26T04:54:46;6.93;;;3.97;;
42124;SDS011;27787;44.594;11.046;2023-06-26T04:57:30;6.90;;;4.07;;
42124;SDS011;27787;44.594;11.046;2023-06-26T05:00:15;7.68;;;4.28;;
42124;SDS011;27787;44.594;11.046;2023-06-26T05:02:59;11.23;;;4.82;;
42124;SDS011;27787;44.594;11.046;2023-06-26T05:05:44;9.25;;;4.82;;
42124;SDS011;27787;44.594;11.046;2023-06-26T05:08:28;8.45;;;4.93;;
42124;SDS011;27787;44.594;11.046;2023-06-26T05:11:12;10.10;;;4.28;;
42124;SDS011;27787;44.594;11.046;2023-06-26T05:13:57;8.77;;;4.97;;
42124;SDS011;27787;44.594;11.046;2023-06-26T05:16:41;9.43;;;5.40;;
42124;SDS011;27787;44.594;11.046;2023-06-26T05:19:25;9.15;;;4.82;;
42124;SDS011;27787;44.594;11.046;2023-06-26T05:22:09;7.97;;;4.78;;
42124;SDS011;27787;44.594;11.046;2023-06-26T05:24:55;7.75;;;4.95;;
42124;SDS011;27787;44.594;11.046;2023-06-26T05:27:43;11.27;;;5.45;;
42124;SDS011;27787;44.594;11.046;2023-06-26T05:30:27;10.40;;;6.83;;
42124;SDS011;27787;44.594;11.046;2023-06-26T05:33:11;11.87;;;5.47;;
42124;SDS011;27787;44.594;11.046;2023-06-26T05:35:58;8.18;;;5.47;;
42124;SDS011;27787;44.594;11.046;2023-06-26T05:38:44;9.07;;;4.97;;
42124;SDS011;27787;44.594;11.046;2023-06-26T05:41:28;9.50;;;5.85;;
42124;SDS011;27787;44.594;11.046;2023-06-26T05:44:12;9.23;;;6.05;;
42124;SDS011;27787;44.594;11.046;2023-06-26T05:46:56;7.22;;;5.00;;
42124;SDS011;27787;44.594;11.046;2023-06-26T05:49:41;10.93;;;5.95;;
42124;SDS011;27787;44.594;11.046;2023-06-26T05:52:24;8.52;;;5.25;;
42124;SDS011;27787;44.594;11.046;2023-06-26T05:55:09;9.87;;;5.93;;
42124;SDS011;27787;44.594;11.046;2023-06-26T05:57:54;11.68;;;6.45;;
42124;SDS011;27787;44.594;11.046;2023-06-26T06:00:43;10.00;;;5.53;;
42124;SDS011;27787;44.594;11.046;2023-06-26T06:03:27;11.77;;;6.18;;
42124;SDS011;27787;44.594;11.046;2023-06-26T06:06:11;9.23;;;6.37;;
42124;SDS011;27787;44.594;11.046;2023-06-26T06:08:56;21.70;;;6.25;;
42124;SDS011;27787;44.594;11.046;2023-06-26T06:11:40;12.32;;;6.22;;
42124;SDS011;27787;44.594;11.046;2023-06-26T06:14:24;9.32;;;6.07;;
42124;SDS011;27787;44.594;11.046;2023-06-26T06:17:08;11.02;;;6.05;;
42124;SDS011;27787;44.594;11.046;2023-06-26T06:19:52;10.40;;;5.90;;
42124;SDS011;27787;44.594;11.046;2023-06-26T06:22:36;8.38;;;5.25;;
42124;SDS011;27787;44.594;11.046;2023-06-26T06:25:21;15.10;;;6.55;;
42124;SDS011;27787;44.594;11.046;2023-06-26T06:28:05;13.30;;;5.63;;
42124;SDS011;27787;44.594;11.046;2023-06-26T06:30:49;9.97;;;6.40;;
42124;SDS011;27787;44.594;11.046;2023-06-26T06:33:34;12.98;;;6.28;;
42124;SDS011;27787;44.594;11.046;2023-06-26T06:36:18;10.93;;;6.07;;
42124;SDS011;27787;44.594;11.046;2023-06-26T06:42:26;12.05;;;6.43;;
42124;SDS011;27787;44.594;11.046;2023-06-26T06:45:10;13.60;;;6.00;;
42124;SDS011;27787;44.594;11.046;2023-06-26T06:47:55;16.07;;;6.13;;
42124;SDS011;27787;44.594;11.046;2023-06-26T06:50:39;9.77;;;6.00;;
42124;SDS011;27787;44.594;11.046;2023-06-26T06:53:23;14.75;;;5.90;;
42124;SDS011;27787;44.594;11.046;2023-06-26T06:56:07;10.82;;;5.32;;
42124;SDS011;27787;44.594;11.046;2023-06-26T06:58:51;10.10;;;5.18;;
42124;SDS011;27787;44.594;11.046;2023-06-26T07:01:36;7.68;;;5.65;;
42124;SDS011;27787;44.594;11.046;2023-06-26T07:04:20;7.57;;;5.43;;
42124;SDS011;27787;44.594;11.046;2023-06-26T07:10:14;9.13;;;4.82;;
42124;SDS011;27787;44.594;11.046;2023-06-26T07:12:58;7.93;;;5.28;;
42124;SDS011;27787;44.594;11.046;2023-06-26T07:15:42;9.07;;;4.80;;
42124;SDS011;27787;44.594;11.046;2023-06-26T07:18:27;10.55;;;5.28;;
42124;SDS011;27787;44.594;11.046;2023-06-26T07:21:12;8.02;;;5.28;;
42124;SDS011;27787;44.594;11.046;2023-06-26T07:23:56;7.60;;;4.85;;
42124;SDS011;27787;44.594;11.046;2023-06-26T07:26:40;7.55;;;5.07;;
42124;SDS011;27787;44.594;11.046;2023-06-26T07:29:24;6.47;;;5.05;;
42124;SDS011;27787;44.594;11.046;2023-06-26T07:32:08;7.65;;;5.13;;
42124;SDS011;27787;44.594;11.046;2023-06-26T07:34:52;8.77;;;5.40;;
42124;SDS011;27787;44.594;11.046;2023-06-26T07:37:36;9.02;;;5.30;;
42124;SDS011;27787;44.594;11.046;2023-06-26T07:40:20;7.00;;;4.93;;
42124;SDS011;27787;44.594;11.046;2023-06-26T07:43:05;7.83;;;4.60;;
42124;SDS011;27787;44.594;11.046;2023-06-26T07:45:49;10.38;;;5.00;;
42124;SDS011;27787;44.594;11.046;2023-06-26T07:48:35;10.82;;;4.65;;
42124;SDS011;27787;44.594;11.046;2023-06-26T07:51:19;7.75;;;4.85;;
42124;SDS011;27787;44.594;11.046;2023-06-26T07:54:03;8.63;;;5.43;;
42124;SDS011;27787;44.594;11.046;2023-06-26T07:56:54;7.63;;;4.72;;
42124;SDS011;27787;44.594;11.046;2023-06-26T07:59:40;7.85;;;5.03;;
42124;SDS011;27787;44.594;11.046;2023-06-26T08:02:24;8.40;;;4.88;;
42124;SDS011;27787;44.594;11.046;2023-06-26T08:05:08;12.90;;;4.32;;
42124;SDS011;27787;44.594;11.046;2023-06-26T08:07:52;10.13;;;4.87;;
42124;SDS011;27787;44.594;11.046;2023-06-26T08:10:36;12.10;;;5.47;;
42124;SDS011;27787;44.594;11.046;2023-06-26T08:13:21;7.90;;;5.00;;
42124;SDS011;27787;44.594;11.046;2023-06-26T08:16:05;9.10;;;4.80;;
42124;SDS011;27787;44.594;11.046;2023-06-26T08:18:49;9.50;;;4.90;;
42124;SDS011;27787;44.594;11.046;2023-06-26T08:21:33;8.68;;;5.28;;
42124;SDS011;27787;44.594;11.046;2023-06-26T08:24:18;7.22;;;4.68;;
42124;SDS011;27787;44.594;11.046;2023-06-26T08:27:02;10.25;;;5.78;;
42124;SDS011;27787;44.594;11.046;2023-06-26T08:29:47;9.93;;;4.68;;
42124;SDS011;27787;44.594;11.046;2023-06-26T08:32:31;7.38;;;4.93;;
42124;SDS011;27787;44.594;11.046;2023-06-26T08:35:15;9.18;;;5.05;;
42124;SDS011;27787;44.594;11.046;2023-06-26T08:38:00;9.07;;;6.10;;
42124;SDS011;27787;44.594;11.046;2023-06-26T08:40:44;8.32;;;5.32;;
42124;SDS011;27787;44.594;11.046;2023-06-26T08:43:28;10.95;;;5.40;;
42124;SDS011;27787;44.594;11.046;2023-06-26T08:46:12;7.47;;;4.85;;
42124;SDS011;27787;44.594;11.046;2023-06-26T08:49:01;7.68;;;4.68;;
42124;SDS011;27787;44.594;11.046;2023-06-26T08:51:56;8.13;;;4.68;;
42124;SDS011;27787;44.594;11.046;2023-06-26T08:54:46;8.18;;;4.78;;
42124;SDS011;27787;44.594;11.046;2023-06-26T08:57:38;7.10;;;4.57;;
42124;SDS011;27787;44.594;11.046;2023-06-26T09:00:22;7.57;;;4.40;;
42124;SDS011;27787;44.594;11.046;2023-06-26T09:03:07;7.00;;;4.80;;
42124;SDS011;27787;44.594;11.046;2023-06-26T09:05:52;11.32;;;5.15;;
42124;SDS011;27787;44.594;11.046;2023-06-26T09:08:36;10.15;;;5.88;;
42124;SDS011;27787;44.594;11.046;2023-06-26T09:11:20;7.27;;;4.77;;
42124;SDS011;27787;44.594;11.046;2023-06-26T09:14:04;7.78;;;4.15;;
42124;SDS011;27787;44.594;11.046;2023-06-26T09:16:51;8.25;;;4.55;;
42124;SDS011;27787;44.594;11.046;2023-06-26T09:19:38;6.93;;;4.47;;
42124;SDS011;27787;44.594;11.046;2023-06-26T09:22:22;7.68;;;5.00;;
42124;SDS011;27787;44.594;11.046;2023-06-26T09:25:07;6.38;;;4.05;;
42124;SDS011;27787;44.594;11.046;2023-06-26T09:30:36;7.22;;;4.05;;
42124;SDS011;27787;44.594;11.046;2023-06-26T09:33:20;7.55;;;4.20;;
42124;SDS011;27787;44.594;11.046;2023-06-26T09:36:05;6.65;;;4.45;;
42124;SDS011;27787;44.594;11.046;2023-06-26T09:38:50;6.65;;;4.38;;
42124;SDS011;27787;44.594;11.046;2023-06-26T09:41:35;10.15;;;4.45;;
42124;SDS011;27787;44.594;11.046;2023-06-26T09:44:19;8.48;;;4.32;;
42124;SDS011;27787;44.594;11.046;2023-06-26T09:47:03;13.15;;;5.15;;
42124;SDS011;27787;44.594;11.046;2023-06-26T09:49:48;6.88;;;4.53;;
42124;SDS011;27787;44.594;11.046;2023-06-26T09:52:32;6.63;;;4.32;;
42124;SDS011;27787;44.594;11.046;2023-06-26T09:55:19;5.43;;;4.15;;
42124;SDS011;27787;44.594;11.046;2023-06-26T09:58:07;7.18;;;4.28;;
42124;SDS011;27787;44.594;11.046;2023-06-26T10:00:53;10.18;;;4.65;;
42124;SDS011;27787;44.594;11.046;2023-06-26T10:03:38;8.75;;;4.40;;
42124;SDS011;27787;44.594;11.046;2023-06-26T10:09:39;7.25;;;4.07;;
42124;SDS011;27787;44.594;11.046;2023-06-26T10:12:27;7.97;;;4.38;;
42124;SDS011;27787;44.594;11.046;2023-06-26T10:15:12;7.72;;;4.20;;
42124;SDS011;27787;44.594;11.046;2023-06-26T10:18:00;5.53;;;3.90;;
42124;SDS011;27787;44.594;11.046;2023-06-26T10:20:45;6.43;;;4.07;;
42124;SDS011;27787;44.594;11.046;2023-06-26T10:23:31;6.22;;;4.15;;
42124;SDS011;27787;44.594;11.046;2023-06-26T10:26:19;5.97;;;4.28;;
42124;SDS011;27787;44.594;11.046;2023-06-26T10:29:05;6.28;;;3.95;;
42124;SDS011;27787;44.594;11.046;2023-06-26T10:31:51;7.18;;;4.60;;
42124;SDS011;27787;44.594;11.046;2023-06-26T10:34:38;7.55;;;4.05;;
42124;SDS011;27787;44.594;11.046;2023-06-26T10:40:46;8.48;;;4.47;;
42124;SDS011;27787;44.594;11.046;2023-06-26T10:43:34;5.20;;;3.78;;
42124;SDS011;27787;44.594;11.046;2023-06-26T10:46:23;6.07;;;4.20;;
42124;SDS011;27787;44.594;11.046;2023-06-26T10:49:07;6.68;;;3.80;;
42124;SDS011;27787;44.594;11.046;2023-06-26T10:51:56;5.15;;;3.78;;
42124;SDS011;27787;44.594;11.046;2023-06-26T10:54:45;7.68;;;3.83;;
42124;SDS011;27787;44.594;11.046;2023-06-26T11:00:15;6.85;;;4.13;;
42124;SDS011;27787;44.594;11.046;2023-06-26T11:03:00;9.88;;;4.25;;
42124;SDS011;27787;44.594;11.046;2023-06-26T11:05:44;6.43;;;3.95;;
42124;SDS011;27787;44.594;11.046;2023-06-26T11:08:45;6.50;;;4.32;;
42124;SDS011;27787;44.594;11.046;2023-06-26T11:14:34;6.65;;;4.07;;
42124;SDS011;27787;44.594;11.046;2023-06-26T11:17:19;8.00;;;4.22;;
42124;SDS011;27787;44.594;11.046;2023-06-26T11:20:07;6.88;;;4.03;;
42124;SDS011;27787;44.594;11.046;2023-06-26T11:22:53;11.13;;;4.68;;
42124;SDS011;27787;44.594;11.046;2023-06-26T11:25:40;6.15;;;4.10;;
42124;SDS011;27787;44.594;11.046;2023-06-26T11:28:24;5.35;;;3.95;;
42124;SDS011;27787;44.594;11.046;2023-06-26T11:31:20;11.93;;;4.22;;
42124;SDS011;27787;44.594;11.046;2023-06-26T11:34:08;7.80;;;4.28;;
42124;SDS011;27787;44.594;11.046;2023-06-26T11:36:56;8.70;;;4.45;;
42124;SDS011;27787;44.594;11.046;2023-06-26T11:39:41;5.43;;;3.60;;
42124;SDS011;27787;44.594;11.046;2023-06-26T11:42:25;7.70;;;3.95;;
42124;SDS011;27787;44.594;11.046;2023-06-26T11:45:09;7.68;;;4.43;;
42124;SDS011;27787;44.594;11.046;2023-06-26T11:47:54;6.57;;;4.18;;
42124;SDS011;27787;44.594;11.046;2023-06-26T11:50:40;7.00;;;4.63;;
42124;SDS011;27787;44.594;11.046;2023-06-26T11:53:24;11.02;;;4.15;;
42124;SDS011;27787;44.594;11.046;2023-06-26T11:56:09;5.33;;;4.03;;
42124;SDS011;27787;44.594;11.046;2023-06-26T12:01:49;8.48;;;4.00;;
42124;SDS011;27787;44.594;11.046;2023-06-26T12:04:36;5.40;;;3.78;;
42124;SDS011;27787;44.594;11.046;2023-06-26T12:07:22;5.07;;;3.67;;
42124;SDS011;27787;44.594;11.046;2023-06-26T12:10:07;5.72;;;3.75;;
42124;SDS011;27787;44.594;11.046;2023-06-26T12:12:53;7.47;;;3.92;;
42124;SDS011;27787;44.594;11.046;2023-06-26T12:15:41;6.35;;;3.63;;
42124;SDS011;27787;44.594;11.046;2023-06-26T12:18:25;10.40;;;4.53;;
42124;SDS011;27787;44.594;11.046;2023-06-26T12:24:22;6.53;;;3.92;;
42124;SDS011;27787;44.594;11.046;2023-06-26T12:27:08;6.60;;;3.58;;
42124;SDS011;27787;44.594;11.046;2023-06-26T12:29:53;8.63;;;4.45;;
42124;SDS011;27787;44.594;11.046;2023-06-26T12:32:38;6.63;;;3.90;;
42124;SDS011;27787;44.594;11.046;2023-06-26T12:35:23;10.85;;;4.53;;
42124;SDS011;27787;44.594;11.046;2023-06-26T12:38:08;7.25;;;3.63;;
42124;SDS011;27787;44.594;11.046;2023-06-26T12:40:59;5.65;;;3.92;;
42124;SDS011;27787;44.594;11.046;2023-06-26T12:43:43;6.20;;;4.10;;
42124;SDS011;27787;44.594;11.046;2023-06-26T12:46:33;8.40;;;4.00;;
42124;SDS011;27787;44.594;11.046;2023-06-26T12:49:28;5.95;;;3.92;;
42124;SDS011;27787;44.594;11.046;2023-06-26T12:52:19;6.68;;;3.83;;
42124;SDS011;27787;44.594;11.046;2023-06-26T12:57:49;5.57;;;3.45;;
42124;SDS011;27787;44.594;11.046;2023-06-26T13:00:34;6.00;;;3.97;;
42124;SDS011;27787;44.594;11.046;2023-06-26T13:03:18;5.95;;;3.75;;
42124;SDS011;27787;44.594;11.046;2023-06-26T13:06:04;4.53;;;3.17;;
42124;SDS011;27787;44.594;11.046;2023-06-26T13:08:48;7.97;;;4.00;;
42124;SDS011;27787;44.594;11.046;2023-06-26T13:11:33;7.05;;;3.88;;
42124;SDS011;27787;44.594;11.046;2023-06-26T13:14:19;5.80;;;3.92;;
42124;SDS011;27787;44.594;11.046;2023-06-26T13:17:03;6.22;;;4.03;;
42124;SDS011;27787;44.594;11.046;2023-06-26T13:19:48;5.47;;;3.85;;
42124;SDS011;27787;44.594;11.046;2023-06-26T13:22:31;6.40;;;3.77;;
42124;SDS011;27787;44.594;11.046;2023-06-26T13:25:16;5.95;;;3.67;;
42124;SDS011;27787;44.594;11.046;2023-06-26T13:28:00;6.23;;;3.70;;
42124;SDS011;27787;44.594;11.046;2023-06-26T13:30:44;5.73;;;4.17;;
42124;SDS011;27787;44.594;11.046;2023-06-26T13:33:28;6.00;;;3.97;;
42124;SDS011;27787;44.594;11.046;2023-06-26T13:36:12;5.90;;;3.80;;
42124;SDS011;27787;44.594;11.046;2023-06-26T13:38:57;7.43;;;4.15;;
42124;SDS011;27787;44.594;11.046;2023-06-26T13:41:41;4.82;;;3.78;;
42124;SDS011;27787;44.594;11.046;2023-06-26T13:44:25;5.10;;;3.20;;
42124;SDS011;27787;44.594;11.046;2023-06-26T13:47:12;5.90;;;3.90;;
42124;SDS011;27787;44.594;11.046;2023-06-26T13:49:56;5.50;;;3.70;;
42124;SDS011;27787;44.594;11.046;2023-06-26T13:52:41;6.82;;;4.03;;
42124;SDS011;27787;44.594;11.046;2023-06-26T13:55:25;6.27;;;4.00;;
42124;SDS011;27787;44.594;11.046;2023-06-26T13:58:10;5.80;;;3.75;;
42124;SDS011;27787;44.594;11.046;2023-06-26T14:00:55;6.25;;;3.63;;
42124;SDS011;27787;44.594;11.046;2023-06-26T14:03:40;7.22;;;4.18;;
42124;SDS011;27787;44.594;11.046;2023-06-26T14:09:09;9.20;;;3.80;;
42124;SDS011;27787;44.594;11.046;2023-06-26T14:11:53;5.43;;;3.58;;
42124;SDS011;27787;44.594;11.046;2023-06-26T14:14:37;4.88;;;3.50;;
42124;SDS011;27787;44.594;11.046;2023-06-26T14:17:22;5.88;;;3.55;;
42124;SDS011;27787;44.594;11.046;2023-06-26T14:20:09;7.93;;;3.70;;
42124;SDS011;27787;44.594;11.046;2023-06-26T14:22:56;7.03;;;3.33;;
42124;SDS011;27787;44.594;11.046;2023-06-26T14:25:40;5.17;;;3.60;;
42124;SDS011;27787;44.594;11.046;2023-06-26T14:28:24;9.75;;;3.92;;
42124;SDS011;27787;44.594;11.046;2023-06-26T14:31:09;6.85;;;4.07;;
42124;SDS011;27787;44.594;11.046;2023-06-26T14:33:53;6.10;;;3.58;;
42124;SDS011;27787;44.594;11.046;2023-06-26T14:36:37;4.77;;;3.07;;
42124;SDS011;27787;44.594;11.046;2023-06-26T14:39:21;5.70;;;3.78;;
42124;SDS011;27787;44.594;11.046;2023-06-26T14:42:05;5.57;;;3.65;;
42124;SDS011;27787;44.594;11.046;2023-06-26T14:47:34;6.03;;;3.90;;
42124;SDS011;27787;44.594;11.046;2023-06-26T14:50:18;5.70;;;3.78;;
42124;SDS011;27787;44.594;11.046;2023-06-26T14:53:03;6.15;;;3.60;;
42124;SDS011;27787;44.594;11.046;2023-06-26T14:55:48;5.60;;;3.80;;
42124;SDS011;27787;44.594;11.046;2023-06-26T14:58:31;6.67;;;3.70;;
42124;SDS011;27787;44.594;11.046;2023-06-26T15:01:16;4.75;;;3.78;;
42124;SDS011;27787;44.594;11.046;2023-06-26T15:03:59;4.20;;;3.30;;
42124;SDS011;27787;44.594;11.046;2023-06-26T15:06:43;6.07;;;3.35;;
42124;SDS011;27787;44.594;11.046;2023-06-26T15:09:28;11.10;;;4.50;;
42124;SDS011;27787;44.594;11.046;2023-06-26T15:12:13;8.70;;;3.85;;
42124;SDS011;27787;44.594;11.046;2023-06-26T15:14:57;7.80;;;3.67;;
42124;SDS011;27787;44.594;11.046;2023-06-26T15:17:42;6.25;;;3.35;;
42124;SDS011;27787;44.594;11.046;2023-06-26T15:20:26;6.22;;;3.58;;
42124;SDS011;27787;44.594;11.046;2023-06-26T15:23:10;6.73;;;3.80;;
42124;SDS011;27787;44.594;11.046;2023-06-26T15:25:54;5.45;;;3.50;;
42124;SDS011;27787;44.594;11.046;2023-06-26T15:28:38;5.97;;;3.45;;
42124;SDS011;27787;44.594;11.046;2023-06-26T15:31:22;4.50;;;3.58;;
42124;SDS011;27787;44.594;11.046;2023-06-26T15:34:06;6.70;;;4.00;;
42124;SDS011;27787;44.594;11.046;2023-06-26T15:36:50;5.35;;;3.63;;
42124;SDS011;27787;44.594;11.046;2023-06-26T15:39:34;7.05;;;3.85;;
42124;SDS011;27787;44.594;11.046;2023-06-26T15:42:18;5.80;;;3.63;;
42124;SDS011;27787;44.594;11.046;2023-06-26T15:45:02;5.20;;;3.42;;
42124;SDS011;27787;44.594;11.046;2023-06-26T15:47:47;7.32;;;3.45;;
42124;SDS011;27787;44.594;11.046;2023-06-26T15:50:32;7.45;;;4.00;;
42124;SDS011;27787;44.594;11.046;2023-06-26T15:53:16;5.13;;;3.63;;
42124;SDS011;27787;44.594;11.046;2023-06-26T15:56:12;4.88;;;3.65;;
42124;SDS011;27787;44.594;11.046;2023-06-26T15:58:56;6.72;;;3.75;;
42124;SDS011;27787;44.594;11.046;2023-06-26T16:01:41;6.93;;;3.80;;
42124;SDS011;27787;44.594;11.046;2023-06-26T16:04:25;4.25;;;3.13;;
42124;SDS011;27787;44.594;11.046;2023-06-26T16:07:10;6.70;;;3.92;;
42124;SDS011;27787;44.594;11.046;2023-06-26T16:09:54;11.55;;;4.10;;
42124;SDS011;27787;44.594;11.046;2023-06-26T16:15:22;4.90;;;3.70;;
42124;SDS011;27787;44.594;11.046;2023-06-26T16:18:07;7.57;;;3.58;;
42124;SDS011;27787;44.594;11.046;2023-06-26T16:20:52;6.38;;;3.53;;
42124;SDS011;27787;44.594;11.046;2023-06-26T16:23:36;6.60;;;3.55;;
42124;SDS011;27787;44.594;11.046;2023-06-26T16:26:20;8.20;;;3.38;;
42124;SDS011;27787;44.594;11.046;2023-06-26T16:29:05;4.28;;;3.30;;
42124;SDS011;27787;44.594;11.046;2023-06-26T16:31:49;5.38;;;3.20;;
42124;SDS011;27787;44.594;11.046;2023-06-26T16:34:34;4.38;;;3.30;;
42124;SDS011;27787;44.594;11.046;2023-06-26T16:37:18;7.03;;;3.30;;
42124;SDS011;27787;44.594;11.046;2023-06-26T16:40:02;4.53;;;3.70;;
42124;SDS011;27787;44.594;11.046;2023-06-26T16:42:47;6.25;;;3.72;;
42124;SDS011;27787;44.594;11.046;2023-06-26T16:45:31;4.63;;;3.58;;
42124;SDS011;27787;44.594;11.046;2023-06-26T16:48:15;7.28;;;3.50;;
42124;SDS011;27787;44.594;11.046;2023-06-26T16:50:59;4.72;;;3.65;;
42124;SDS011;27787;44.594;11.046;2023-06-26T16:53:43;7.07;;;4.30;;
42124;SDS011;27787;44.594;11.046;2023-06-26T16:56:27;4.38;;;3.85;;
42124;SDS011;27787;44.594;11.046;2023-06-26T16:59:11;4.78;;;3.85;;
42124;SDS011;27787;44.594;11.046;2023-06-26T17:01:55;5.15;;;3.92;;
42124;SDS011;27787;44.594;11.046;2023-06-26T17:04:44;4.55;;;3.50;;
42124;SDS011;27787;44.594;11.046;2023-06-26T17:07:28;4.43;;;3.53;;